Time;durP1;ratioP1;P1;durP2;ratioP2;P2;SDS_P1;SDS_P2;PMS_P1;PMS_P2;Temp;Humidity;BMP_temperature;BMP_pressure;BME280_temperature;BME280_humidity;BME280_pressure;Samples;Min_cycle;Max_cycle;Signal;HPM_P1;HPM_P2
2022/02/05 00:00:31;;;;;;;0.70;0.70;;;6.10;99.90;;;;;;1834653;76;21212;-76
2022/02/05 00:03:26;;;;;;;0.65;0.60;;;6.10;99.90;;;;;;1823098;76;21088;-76
2022/02/05 00:05:45;;;;;;;0.50;0.50;;;6.00;99.90;;;;;;1829821;76;21094;-77
2022/02/05 00:08:24;;;;;;;0.60;0.60;;;5.90;99.90;;;;;;1839033;75;21095;-75
2022/02/05 00:38:26;;;;;;;1.22;0.75;;;5.40;99.90;;;;;;1821038;78;21180;-77
2022/02/05 00:43:18;;;;;;;2.90;1.72;;;5.40;99.90;;;;;;1813863;78;21251;-77
2022/02/05 00:45:49;;;;;;;3.22;1.75;;;5.40;99.90;;;;;;1828208;76;21177;-76
2022/02/05 00:48:16;;;;;;;1.27;1.17;;;5.40;99.90;;;;;;1825952;76;21488;-78
2022/02/05 00:50:49;;;;;;;3.02;1.10;;;5.30;99.90;;;;;;1825526;77;21134;-76
2022/02/05 00:53:27;;;;;;;0.80;0.80;;;5.20;99.90;;;;;;1839359;76;21123;-76
2022/02/05 00:55:50;;;;;;;2.10;0.90;;;5.20;99.90;;;;;;1826236;77;21515;-78
2022/02/05 00:58:10;;;;;;;0.93;0.82;;;5.10;99.90;;;;;;1837688;76;21122;-78
2022/02/05 01:00:38;;;;;;;1.47;0.70;;;5.10;99.90;;;;;;1841384;76;21156;-79
2022/02/05 01:03:05;;;;;;;2.40;0.90;;;5.10;99.90;;;;;;1834241;76;21169;-79
2022/02/05 01:05:34;;;;;;;1.75;0.98;;;5.10;99.90;;;;;;1835549;76;21104;-79
2022/02/05 01:08:02;;;;;;;3.10;1.10;;;5.10;99.90;;;;;;1827104;76;21177;-78
2022/02/05 01:10:29;;;;;;;0.65;0.65;;;4.90;99.90;;;;;;1824041;77;21111;-79
2022/02/05 01:13:04;;;;;;;0.70;0.70;;;4.90;99.90;;;;;;1825561;77;21247;-79
2022/02/05 01:15:36;;;;;;;4.60;1.00;;;4.90;99.90;;;;;;1830087;75;21166;-80
2022/02/05 01:18:02;;;;;;;2.60;0.90;;;4.80;99.90;;;;;;1831292;76;21168;-80
2022/02/05 01:20:50;;;;;;;4.40;1.20;;;4.70;99.90;;;;;;1830589;76;21088;-79
2022/02/05 01:22:58;;;;;;;1.77;1.10;;;4.60;99.90;;;;;;1822033;76;21177;-80
2022/02/05 01:25:29;;;;;;;3.92;0.90;;;4.50;99.90;;;;;;1826630;76;21209;-79
2022/02/05 01:27:58;;;;;;;1.72;0.85;;;4.40;99.90;;;;;;1829853;76;21686;-79
2022/02/05 01:30:27;;;;;;;5.72;0.93;;;4.40;99.90;;;;;;1831011;76;21124;-79
2022/02/05 01:33:48;;;;;;;2.15;0.70;;;4.20;99.90;;;;;;1836515;76;21213;-79
2022/02/05 01:35:42;;;;;;;4.47;0.85;;;4.10;99.90;;;;;;1838398;75;21133;-79
2022/02/05 01:49:28;;;;;;;2.25;1.20;;;3.80;99.90;;;;;;1829076;78;21566;-80
2022/02/05 01:57:16;;;;;;;2.77;0.90;;;3.60;99.90;;;;;;1762396;81;21109;-79
2022/02/05 02:04:44;;;;;;;1.55;0.88;;;3.60;99.90;;;;;;1829582;76;21552;-77
2022/02/05 02:05:08;;;;;;;2.05;0.90;;;3.60;99.90;;;;;;1831980;76;21087;-79
2022/02/05 02:10:56;;;;;;;3.45;0.90;;;3.20;99.90;;;;;;1828577;76;21166;-79
2022/02/05 02:15:54;;;;;;;2.30;0.90;;;3.00;99.90;;;;;;1845869;78;21046;-79
2022/02/05 02:26:24;;;;;;;2.02;0.80;;;2.80;99.90;;;;;;1860866;77;21134;-79
2022/02/05 02:28:49;;;;;;;0.80;0.70;;;2.80;99.90;;;;;;1858005;76;21048;-79
2022/02/05 02:31:16;;;;;;;3.33;0.98;;;2.80;99.90;;;;;;1859166;77;21062;-79
2022/02/05 02:33:44;;;;;;;4.10;1.07;;;2.70;99.90;;;;;;1859509;76;21056;-79
2022/02/05 02:36:14;;;;;;;1.62;0.75;;;2.70;99.90;;;;;;1859748;76;21090;-79
2022/02/05 02:38:46;;;;;;;5.75;1.00;;;2.70;99.90;;;;;;1859934;77;21143;-78
2022/02/05 02:41:15;;;;;;;3.30;0.90;;;2.60;99.90;;;;;;1859315;76;21032;-78
2022/02/05 02:43:37;;;;;;;1.20;0.85;;;2.40;99.90;;;;;;1858810;77;21428;-78
2022/02/05 02:46:05;;;;;;;2.67;1.00;;;2.40;99.90;;;;;;1860834;77;21036;-79
2022/02/05 02:48:33;;;;;;;4.22;1.00;;;2.30;99.90;;;;;;1860795;77;21016;-79
2022/02/05 02:59:25;;;;;;;1.72;0.80;;;2.30;99.90;;;;;;1850961;77;21065;-79
2022/02/05 03:01:42;;;;;;;4.45;1.22;;;2.10;99.90;;;;;;1849406;77;21110;-78
2022/02/05 03:04:09;;;;;;;2.60;0.90;;;2.20;99.90;;;;;;1854667;77;21122;-79
2022/02/05 03:06:36;;;;;;;1.47;0.80;;;2.20;99.90;;;;;;1854744;76;21083;-80
2022/02/05 03:09:04;;;;;;;1.62;0.70;;;2.10;99.90;;;;;;1860754;77;21075;-79
2022/02/05 03:11:31;;;;;;;2.50;0.95;;;2.10;99.90;;;;;;1860852;77;21024;-79
2022/02/05 03:14:00;;;;;;;2.42;0.95;;;2.00;99.90;;;;;;1860915;76;21110;-79
2022/02/05 03:16:34;;;;;;;1.55;1.00;;;1.90;99.90;;;;;;1860434;76;21040;-81
2022/02/05 03:21:26;;;;;;;3.67;1.40;;;2.00;99.90;;;;;;1860675;77;21134;-79
2022/02/05 03:23:53;;;;;;;5.25;1.00;;;2.00;99.90;;;;;;1860674;77;21098;-78
2022/02/05 03:26:20;;;;;;;4.10;1.10;;;1.90;99.90;;;;;;1860725;77;21440;-79
2022/02/05 03:28:49;;;;;;;1.30;0.80;;;1.90;99.90;;;;;;1860691;77;21001;-80
2022/02/05 03:31:17;;;;;;;5.53;1.30;;;2.00;99.90;;;;;;1860805;77;21140;-79
2022/02/05 03:33:44;;;;;;;3.17;1.17;;;2.00;99.90;;;;;;1860918;77;21072;-81
2022/02/05 03:36:12;;;;;;;2.30;0.75;;;2.00;99.90;;;;;;1860818;76;21547;-81
2022/02/05 03:38:39;;;;;;;2.08;0.93;;;1.90;99.90;;;;;;1860883;76;21028;-81
2022/02/05 03:41:07;;;;;;;3.30;1.50;;;1.80;99.90;;;;;;1860876;75;21117;-81
2022/02/05 03:43:35;;;;;;;1.12;0.95;;;1.80;99.90;;;;;;1860800;76;21060;-81
2022/02/05 03:46:03;;;;;;;2.22;0.68;;;1.80;99.90;;;;;;1860799;76;21098;-79
2022/02/05 03:48:30;;;;;;;2.83;1.02;;;1.70;99.90;;;;;;1860718;77;21048;-80
2022/02/05 03:50:58;;;;;;;2.02;1.20;;;1.70;99.90;;;;;;1860679;75;21020;-79
2022/02/05 03:53:25;;;;;;;2.15;1.10;;;1.70;99.90;;;;;;1860751;75;21039;-80
2022/02/05 03:55:52;;;;;;;2.37;0.98;;;1.80;99.90;;;;;;1860961;75;21030;-81
2022/02/05 03:58:20;;;;;;;4.03;1.50;;;1.80;99.90;;;;;;1860955;75;21401;-80
2022/02/05 04:00:47;;;;;;;3.25;1.00;;;1.80;99.90;;;;;;1861159;77;21022;-82
2022/02/05 04:03:14;;;;;;;5.53;1.22;;;1.80;99.90;;;;;;1861001;75;21064;-81
2022/02/05 04:05:42;;;;;;;2.30;1.32;;;1.80;99.90;;;;;;1825124;77;21094;-81
2022/02/05 04:08:11;;;;;;;11.25;1.62;;;1.70;99.90;;;;;;1860943;76;21016;-80
2022/02/05 04:10:49;;;;;;;7.40;1.62;;;1.80;99.90;;;;;;1861032;77;21145;-80
2022/02/05 04:18:39;;;;;;;6.43;1.87;;;2.10;99.90;;;;;;1805554;77;21105;-81
2022/02/05 04:21:06;;;;;;;1.92;1.00;;;2.20;99.90;;;;;;1861003;77;21009;-80
2022/02/05 04:23:34;;;;;;;6.42;1.65;;;2.20;99.90;;;;;;1825482;77;21152;-79
2022/02/05 04:26:01;;;;;;;4.25;1.37;;;2.20;99.90;;;;;;1860811;76;21425;-80
2022/02/05 04:28:28;;;;;;;5.22;1.72;;;2.20;99.90;;;;;;1860916;76;21028;-81
2022/02/05 04:30:55;;;;;;;8.13;1.30;;;2.30;99.90;;;;;;1861040;76;21098;-81
2022/02/05 04:33:23;;;;;;;2.45;1.20;;;2.30;99.90;;;;;;1860833;76;21099;-82
2022/02/05 04:35:50;;;;;;;2.27;1.10;;;2.30;99.90;;;;;;1861094;76;21025;-80
2022/02/05 04:38:19;;;;;;;2.80;1.27;;;2.20;99.90;;;;;;1861038;75;21001;-81
2022/02/05 04:40:54;;;;;;;2.75;1.25;;;2.20;99.90;;;;;;1860870;77;21024;-80
2022/02/05 04:46:14;;;;;;;8.90;1.60;;;2.40;99.90;;;;;;1860801;77;21064;-80
2022/02/05 04:54:06;;;;;;;2.27;1.10;;;2.60;99.90;;;;;;1854947;77;21439;-81
2022/02/05 04:56:30;;;;;;;5.03;1.47;;;2.70;99.90;;;;;;1852418;76;21095;-81
2022/02/05 04:59:14;;;;;;;2.25;1.27;;;2.80;99.90;;;;;;1853350;76;21154;-80
2022/02/05 05:04:27;;;;;;;1.00;0.90;;;2.80;99.90;;;;;;1860985;77;21163;-81
2022/02/05 05:12:27;;;;;;;2.65;1.37;;;2.90;99.90;;;;;;1860881;77;21472;-80
2022/02/05 05:20:21;;;;;;;4.67;1.02;;;2.90;99.90;;;;;;1860721;77;21122;-80
2022/02/05 05:22:48;;;;;;;4.03;1.60;;;2.90;99.90;;;;;;1860829;76;21029;-79
2022/02/05 05:25:16;;;;;;;3.85;1.40;;;2.90;99.90;;;;;;1860830;76;21095;-79
2022/02/05 05:27:44;;;;;;;4.53;1.57;;;2.90;99.90;;;;;;1860761;75;21461;-79
2022/02/05 05:30:11;;;;;;;4.17;1.65;;;2.90;99.90;;;;;;1860889;75;21191;-78
2022/02/05 05:32:41;;;;;;;3.30;1.50;;;2.80;99.90;;;;;;1860919;76;21032;-80
2022/02/05 05:35:08;;;;;;;4.20;1.87;;;2.80;99.90;;;;;;1860629;76;21118;-78
2022/02/05 05:37:36;;;;;;;2.87;1.62;;;2.80;99.90;;;;;;1860682;77;21510;-80
2022/02/05 05:40:03;;;;;;;3.40;1.65;;;3.00;99.90;;;;;;1860898;77;21107;-79
2022/02/05 05:42:37;;;;;;;4.50;1.75;;;3.00;99.90;;;;;;1860780;76;21032;-78
2022/02/05 05:45:19;;;;;;;4.33;1.62;;;3.10;99.90;;;;;;1859557;77;21475;-79
2022/02/05 05:50:02;;;;;;;3.05;1.52;;;3.20;99.90;;;;;;1860707;75;21197;-81
2022/02/05 05:52:27;;;;;;;2.50;1.70;;;3.30;99.90;;;;;;1860030;77;21207;-80
2022/02/05 05:54:56;;;;;;;2.50;1.70;;;3.30;99.90;;;;;;1860918;75;21107;-79
2022/02/05 05:57:23;;;;;;;2.75;1.55;;;3.40;99.90;;;;;;1860963;77;21086;-79
2022/02/05 05:59:51;;;;;;;3.65;1.70;;;3.50;99.90;;;;;;1827432;77;21037;-80
2022/02/05 06:02:18;;;;;;;5.08;1.65;;;3.50;99.90;;;;;;1860912;75;21024;-79
2022/02/05 06:04:45;;;;;;;6.80;1.98;;;3.50;99.90;;;;;;1860875;76;21130;-80
2022/02/05 06:07:13;;;;;;;3.55;1.12;;;3.50;99.90;;;;;;1825568;77;21385;-81
2022/02/05 06:09:43;;;;;;;6.42;1.80;;;3.50;99.90;;;;;;1861024;76;21025;-81
2022/02/05 06:12:10;;;;;;;4.97;1.50;;;3.40;99.90;;;;;;1860755;76;21056;-81
2022/02/05 06:14:38;;;;;;;2.55;1.50;;;3.50;99.90;;;;;;1825106;77;21098;-79
2022/02/05 06:17:09;;;;;;;3.95;1.67;;;3.60;99.90;;;;;;1860916;76;21064;-82
2022/02/05 06:19:37;;;;;;;3.05;1.65;;;3.60;99.90;;;;;;1860649;75;21254;-80
2022/02/05 06:22:04;;;;;;;4.85;1.72;;;3.50;99.90;;;;;;1860862;76;21110;-80
2022/02/05 06:24:32;;;;;;;4.08;1.55;;;3.60;99.90;;;;;;1825365;77;21369;-82
2022/02/05 06:26:59;;;;;;;4.28;1.80;;;3.70;99.90;;;;;;1860939;77;21106;-81
2022/02/05 06:29:26;;;;;;;3.27;1.40;;;3.70;99.90;;;;;;1860874;75;21098;-81
2022/02/05 06:31:53;;;;;;;4.22;1.80;;;3.60;99.90;;;;;;1860864;76;21024;-80
2022/02/05 06:34:21;;;;;;;4.80;1.55;;;3.50;99.90;;;;;;1861000;75;21028;-81
2022/02/05 06:36:48;;;;;;;3.15;1.50;;;3.60;99.90;;;;;;1861309;75;21405;-81
2022/02/05 06:39:15;;;;;;;7.33;1.80;;;3.60;99.90;;;;;;1861262;77;21059;-80
2022/02/05 06:41:43;;;;;;;3.00;1.30;;;3.50;99.90;;;;;;1861312;77;21071;-81
2022/02/05 06:44:11;;;;;;;1.42;1.25;;;3.60;99.90;;;;;;1861107;76;21127;-82
2022/02/05 06:46:39;;;;;;;2.77;1.40;;;3.60;99.90;;;;;;1861010;76;21161;-80
2022/02/05 06:49:07;;;;;;;4.95;1.72;;;3.70;99.90;;;;;;1861078;76;21033;-81
2022/02/05 06:51:34;;;;;;;3.92;1.65;;;3.60;99.90;;;;;;1861090;77;21105;-81
2022/02/05 06:54:02;;;;;;;3.65;1.52;;;3.70;99.90;;;;;;1861134;77;21024;-81
2022/02/05 06:56:29;;;;;;;4.10;1.82;;;3.70;99.90;;;;;;1861022;76;21432;-80
2022/02/05 06:58:56;;;;;;;4.72;1.70;;;3.70;99.90;;;;;;1861253;76;21009;-80
2022/02/05 07:01:24;;;;;;;5.28;1.47;;;3.60;99.90;;;;;;1860924;76;21005;-80
2022/02/05 07:03:51;;;;;;;6.33;1.67;;;3.50;99.90;;;;;;1860718;76;21086;-80
2022/02/05 07:06:18;;;;;;;8.28;1.90;;;3.60;99.90;;;;;;1860729;77;21106;-80
2022/02/05 07:08:45;;;;;;;6.17;1.60;;;3.60;99.90;;;;;;1860727;75;21452;-79
2022/02/05 07:11:14;;;;;;;8.23;1.52;;;3.60;99.90;;;;;;1860748;77;21094;-84
2022/02/05 07:13:45;;;;;;;5.92;1.70;;;3.60;99.90;;;;;;1861206;77;20998;-88
2022/02/05 07:16:20;;;;;;;3.60;1.62;;;3.60;99.90;;;;;;1861312;76;21044;-86
2022/02/05 07:18:58;;;;;;;4.12;1.37;;;3.60;99.90;;;;;;1860505;77;21126;-86
2022/02/05 07:21:20;;;;;;;8.08;1.75;;;3.60;99.90;;;;;;1825902;77;21142;-88
2022/02/05 07:23:58;;;;;;;3.00;1.57;;;3.60;99.90;;;;;;1857785;77;21093;-86
2022/02/05 07:29:14;;;;;;;3.85;1.98;;;3.70;99.90;;;;;;1861353;77;21048;-89
2022/02/05 07:31:51;;;;;;;4.40;1.75;;;3.70;99.90;;;;;;1826167;77;21114;-89
2022/02/05 07:34:21;;;;;;;2.77;1.25;;;3.70;99.90;;;;;;1861607;75;21099;-89
2022/02/05 07:36:49;;;;;;;4.22;1.40;;;3.70;99.90;;;;;;1862172;76;21005;-86
2022/02/05 07:39:17;;;;;;;1.95;1.57;;;3.70;99.90;;;;;;1826176;77;21069;-87
2022/02/05 07:41:44;;;;;;;3.08;1.55;;;3.70;99.90;;;;;;1861954;75;21102;-86
2022/02/05 07:44:15;;;;;;;5.17;1.65;;;3.70;99.90;;;;;;1861884;76;21016;-86
2022/02/05 07:46:43;;;;;;;;;;;3.60;99.90;;;;;;1864589;77;21464;-89
2022/02/05 07:49:14;;;;;;;2.67;1.40;;;3.70;99.90;;;;;;1861568;75;20141;-82
2022/02/05 07:51:41;;;;;;;11.73;1.75;;;3.70;99.90;;;;;;1860364;77;21086;-88
2022/02/05 07:54:11;;;;;;;2.42;1.60;;;3.60;99.90;;;;;;1861495;76;21113;-81
2022/02/05 07:56:40;;;;;;;4.10;1.42;;;3.70;99.90;;;;;;1860786;76;21088;-80
2022/02/05 07:59:07;;;;;;;7.05;2.02;;;3.60;99.90;;;;;;1853110;76;21021;-80
2022/02/05 08:01:35;;;;;;;6.78;1.55;;;3.60;99.90;;;;;;1855093;76;21032;-77
2022/02/05 08:04:02;;;;;;;5.28;1.85;;;3.60;99.90;;;;;;1853992;76;21073;-78
2022/02/05 08:06:33;;;;;;;3.72;1.72;;;3.70;99.90;;;;;;1855152;76;21029;-85
2022/02/05 08:09:04;;;;;;;3.58;1.90;;;3.60;99.90;;;;;;1854673;77;21029;-81
2022/02/05 08:11:43;;;;;;;4.22;2.00;;;3.70;99.90;;;;;;1831394;77;21410;-81
2022/02/05 08:14:06;;;;;;;5.90;2.15;;;3.70;99.90;;;;;;1851467;76;21064;-84
2022/02/05 08:17:18;;;;;;;9.25;2.50;;;3.70;99.90;;;;;;1854299;76;21468;-85
2022/02/05 08:19:03;;;;;;;8.15;1.82;;;3.80;99.90;;;;;;1848420;76;21114;-83
2022/02/05 08:21:30;;;;;;;5.97;1.67;;;3.90;99.90;;;;;;1861016;77;21369;-84
2022/02/05 08:23:58;;;;;;;6.70;2.15;;;3.80;99.90;;;;;;1861890;76;20997;-84
2022/02/05 08:26:28;;;;;;;5.55;1.75;;;3.70;99.90;;;;;;1863050;76;21032;-83
2022/02/05 08:29:00;;;;;;;11.28;2.10;;;3.80;99.90;;;;;;1862338;77;21065;-83
2022/02/05 08:31:27;;;;;;;4.92;1.80;;;3.90;99.90;;;;;;1861514;77;21073;-83
2022/02/05 08:33:54;;;;;;;6.42;1.98;;;4.00;99.90;;;;;;1861643;76;21200;-83
2022/02/05 08:36:23;;;;;;;3.95;1.55;;;4.10;99.90;;;;;;1825811;77;21079;-82
2022/02/05 08:38:51;;;;;;;4.95;1.65;;;4.10;99.90;;;;;;1832118;77;21085;-82
2022/02/05 08:41:19;;;;;;;3.02;1.45;;;4.20;99.90;;;;;;1855643;76;21024;-83
2022/02/05 08:43:46;;;;;;;5.95;1.95;;;4.10;99.90;;;;;;1854134;77;21081;-82
2022/02/05 08:46:13;;;;;;;4.33;2.20;;;4.20;99.90;;;;;;1855662;76;21009;-82
2022/02/05 08:48:45;;;;;;;6.42;2.00;;;4.20;99.90;;;;;;1855567;76;21028;-83
2022/02/05 08:51:14;;;;;;;3.27;1.35;;;4.30;99.90;;;;;;1855444;76;21139;-84
2022/02/05 08:53:41;;;;;;;6.72;1.85;;;4.30;99.90;;;;;;1855240;76;21029;-79
2022/02/05 08:56:09;;;;;;;4.85;1.35;;;4.40;99.90;;;;;;1855008;77;21106;-84
2022/02/05 08:58:36;;;;;;;4.55;1.67;;;4.60;99.90;;;;;;1831952;77;21431;-80
2022/02/05 09:03:56;;;;;;;2.87;1.25;;;4.80;99.90;;;;;;1854798;77;21122;-80
2022/02/05 09:06:18;;;;;;;3.02;1.50;;;5.10;99.90;;;;;;1852804;76;21052;-82
2022/02/05 09:08:53;;;;;;;3.77;1.40;;;5.30;99.90;;;;;;1852583;76;21102;-80
2022/02/05 09:16:45;;;;;;;8.23;1.35;;;6.00;99.90;;;;;;1850725;77;21099;-78
2022/02/05 09:19:12;;;;;;;4.10;1.75;;;5.90;99.90;;;;;;1855040;77;21145;-80
2022/02/05 09:21:39;;;;;;;8.90;1.55;;;6.20;99.90;;;;;;1854886;76;21032;-77
2022/02/05 09:24:07;;;;;;;3.00;1.37;;;6.40;99.90;;;;;;1861230;77;21436;-76
2022/02/05 09:26:37;;;;;;;6.03;1.52;;;6.30;99.90;;;;;;1860989;77;21048;-81
2022/02/05 09:29:13;;;;;;;4.10;1.35;;;6.40;99.90;;;;;;1861022;77;21052;-82
2022/02/05 09:31:36;;;;;;;;;;;6.60;99.90;;;;;;1862175;76;21053;-83
2022/02/05 09:34:06;;;;;;;3.33;1.40;;;6.50;99.90;;;;;;1860937;75;20106;-79
2022/02/05 09:36:35;;;;;;;2.22;1.05;;;6.60;99.90;;;;;;1861187;76;21102;-79
2022/02/05 09:39:02;;;;;;;3.25;1.10;;;6.80;99.90;;;;;;1860974;75;21009;-81
2022/02/05 09:41:30;;;;;;;5.17;1.32;;;7.00;99.90;;;;;;1860942;75;21009;-79
2022/02/05 09:43:57;;;;;;;3.80;1.50;;;7.20;99.90;;;;;;1860868;77;21156;-79
2022/02/05 09:46:26;;;;;;;6.70;1.45;;;7.40;99.90;;;;;;1861008;75;21101;-79
2022/02/05 09:48:54;;;;;;;2.90;1.17;;;7.40;99.90;;;;;;1860874;75;21091;-79
2022/02/05 09:51:31;;;;;;;2.22;1.25;;;7.40;99.90;;;;;;1860887;76;21024;-78
2022/02/05 09:53:56;;;;;;;7.42;1.30;;;7.50;99.90;;;;;;1860142;77;21624;-79
2022/02/05 09:56:26;;;;;;;3.37;1.37;;;7.60;99.90;;;;;;1860738;75;21028;-81
2022/02/05 09:58:55;;;;;;;4.95;1.37;;;7.90;99.90;;;;;;1861179;77;21005;-78
2022/02/05 10:01:25;;;;;;;5.65;1.47;;;8.30;99.90;;;;;;1861021;75;21425;-76
2022/02/05 10:03:52;;;;;;;3.02;1.20;;;8.20;99.90;;;;;;1860558;76;21156;-78
2022/02/05 10:06:27;;;;;;;4.42;1.37;;;8.20;99.90;;;;;;1861153;76;21098;-76
2022/02/05 10:09:07;;;;;;;5.00;1.42;;;8.10;99.90;;;;;;1860697;76;21048;-78
2022/02/05 10:11:59;;;;;;;3.90;1.12;;;8.10;99.90;;;;;;1859510;76;21078;-79
2022/02/05 10:14:25;;;;;;;3.67;1.25;;;8.70;99.90;;;;;;1859542;76;21052;-79
2022/02/05 10:17:00;;;;;;;4.20;1.70;;;9.00;99.90;;;;;;1861009;77;21035;-81
2022/02/05 10:19:51;;;;;;;2.92;0.95;;;9.40;99.90;;;;;;1860914;77;21410;-81
2022/02/05 10:22:23;;;;;;;3.62;1.30;;;9.20;99.90;;;;;;1826404;77;21122;-81
2022/02/05 10:24:55;;;;;;;4.45;1.85;;;8.40;99.90;;;;;;1859673;76;21052;-80
2022/02/05 10:27:42;;;;;;;5.20;1.00;;;8.20;99.90;;;;;;1859405;76;21060;-79
2022/02/05 10:30:21;;;;;;;5.62;1.65;;;8.10;99.90;;;;;;1860851;77;21456;-80
2022/02/05 10:32:50;;;;;;;6.53;1.80;;;7.70;99.90;;;;;;1860522;77;21084;-79
2022/02/05 10:35:32;;;;;;;6.22;1.47;;;8.10;99.90;;;;;;1861155;77;21024;-79
2022/02/05 10:43:17;;;;;;;10.00;1.32;;;8.20;99.90;;;;;;1860811;77;21069;-79
2022/02/05 10:45:50;;;;;;;3.85;1.15;;;7.80;99.90;;;;;;1857493;76;21032;-81
2022/02/05 10:48:21;;;;;;;8.18;1.82;;;7.80;99.90;;;;;;1860969;77;21456;-79
2022/02/05 10:50:53;;;;;;;4.78;1.15;;;7.90;99.90;;;;;;1861625;75;21059;-79
2022/02/05 10:53:36;;;;;;;3.47;1.07;;;7.80;99.90;;;;;;1861866;77;21047;-80
2022/02/05 10:56:26;;;;;;;6.60;1.52;;;7.80;99.90;;;;;;1860903;77;21064;-80
2022/02/05 10:59:13;;;;;;;4.92;1.27;;;7.60;99.90;;;;;;1859812;77;21103;-80
2022/02/05 11:07:16;;;;;;;8.45;1.30;;;7.40;99.90;;;;;;1861723;77;21515;-80
2022/02/05 11:09:49;;;;;;;4.22;1.32;;;7.50;99.90;;;;;;1826569;77;21020;-79
2022/02/05 11:20:21;;;;;;;4.47;1.50;;;8.00;99.90;;;;;;1829074;77;21025;-79
2022/02/05 11:22:53;;;;;;;8.13;1.17;;;8.10;99.90;;;;;;1861371;77;21370;-79
2022/02/05 11:25:22;;;;;;;4.60;1.72;;;8.00;99.90;;;;;;1861601;77;21016;-80
2022/02/05 11:27:55;;;;;;;5.20;0.95;;;7.90;99.90;;;;;;1861596;75;21560;-79
2022/02/05 11:30:36;;;;;;;8.00;1.27;;;8.20;99.90;;;;;;1861629;76;21036;-78
2022/02/05 11:33:06;;;;;;;2.35;0.98;;;8.60;99.90;;;;;;1861554;76;21056;-79
2022/02/05 11:36:19;;;;;;;2.35;0.78;;;9.40;99.90;;;;;;1861455;77;21426;-77
2022/02/05 11:38:19;;;;;;;4.30;1.05;;;9.90;99.90;;;;;;1856012;75;21753;-79
2022/02/05 11:40:49;;;;;;;10.68;4.58;;;9.90;99.90;;;;;;1800931;77;21084;-78
2022/02/05 11:43:25;;;;;;;3.40;0.93;;;9.50;99.90;;;;;;1859262;76;21579;-78
2022/02/05 11:46:18;;;;;;;2.40;0.90;;;9.90;99.90;;;;;;1861508;77;21060;-79
2022/02/05 11:49:00;;;;;;;4.97;0.98;;;10.20;99.90;;;;;;1861377;77;21535;-81
2022/02/05 11:51:28;;;;;;;6.47;1.27;;;10.20;99.90;;;;;;1860138;77;21052;-79
2022/02/05 11:54:00;;;;;;;1.82;0.98;;;9.60;99.90;;;;;;1861609;77;21099;-79
2022/02/05 11:56:49;;;;;;;3.45;1.15;;;8.90;99.90;;;;;;1825636;77;21052;-80
2022/02/05 11:59:21;;;;;;;2.62;1.00;;;9.10;99.90;;;;;;1861505;77;21398;-80
2022/02/05 12:01:48;;;;;;;4.30;1.00;;;8.90;99.90;;;;;;1857822;77;21021;-80
2022/02/05 12:04:24;;;;;;;1.67;0.80;;;8.50;99.90;;;;;;1861563;76;21001;-80
2022/02/05 12:07:00;;;;;;;1.82;0.90;;;9.20;99.90;;;;;;1861325;76;21066;-80
2022/02/05 12:09:47;;;;;;;3.80;1.10;;;9.70;99.90;;;;;;1861549;77;21163;-80
2022/02/05 12:12:37;;;;;;;3.27;0.90;;;10.20;99.90;;;;;;1861565;77;21506;-80
2022/02/05 12:15:19;;;;;;;2.60;0.93;;;10.30;99.90;;;;;;1861671;77;21081;-80
2022/02/05 12:18:08;;;;;;;3.10;0.80;;;9.70;99.90;;;;;;1861649;77;21059;-81
2022/02/05 12:20:32;;;;;;;7.87;1.05;;;9.60;99.90;;;;;;1859557;77;21106;-79
2022/02/05 12:23:29;;;;;;;2.12;0.72;;;9.30;99.90;;;;;;1861111;77;21116;-77
2022/02/05 12:26:02;;;;;;;3.35;0.98;;;9.30;99.90;;;;;;1856799;76;21081;-80
2022/02/05 12:28:37;;;;;;;3.17;0.90;;;9.80;99.90;;;;;;1861806;77;21063;-79
2022/02/05 12:31:07;;;;;;;3.08;1.00;;;10.20;99.90;;;;;;1861621;77;21160;-77
2022/02/05 12:33:50;;;;;;;1.12;0.80;;;10.20;99.90;;;;;;1861586;77;21045;-79
2022/02/05 12:36:32;;;;;;;2.95;1.07;;;10.20;99.90;;;;;;1861138;77;21064;-79
2022/02/05 12:39:02;;;;;;;2.52;1.20;;;10.20;99.90;;;;;;1860955;77;21114;-80
2022/02/05 12:41:30;;;;;;;10.88;1.17;;;10.60;99.90;;;;;;1861129;75;21017;-80
2022/02/05 12:44:06;;;;;;;1.95;0.80;;;11.00;99.90;;;;;;1860914;76;21087;-79
2022/02/05 12:46:55;;;;;;;4.80;1.20;;;11.00;99.90;;;;;;1861061;77;21017;-80
2022/02/05 12:49:26;;;;;;;10.03;2.12;;;9.90;99.90;;;;;;1857124;76;21175;-80
2022/02/05 12:51:52;;;;;;;7.20;2.58;;;9.30;99.90;;;;;;1860131;77;21197;-79
2022/02/05 12:54:26;;;;;;;4.12;1.90;;;9.00;99.90;;;;;;1860920;75;21530;-79
2022/02/05 12:56:55;;;;;;;3.00;1.10;;;9.10;99.90;;;;;;1860729;76;21432;-79
2022/02/05 12:59:27;;;;;;;1.65;0.93;;;10.20;99.90;;;;;;1860879;76;21024;-78
2022/02/05 13:01:56;;;;;;;;;;;10.90;99.90;;;;;;1827113;77;21133;-79
2022/02/05 13:04:25;;;;;;;5.47;1.42;;;11.80;99.90;;;;;;1860793;77;20119;-80
2022/02/05 13:07:21;;;;;;;4.55;1.62;;;11.80;99.90;;;;;;1860985;75;21510;-80
2022/02/05 13:09:57;;;;;;;3.12;0.80;;;11.40;99.90;;;;;;1860930;77;21468;-78
2022/02/05 13:12:32;;;;;;;2.35;0.70;;;11.60;99.90;;;;;;1860525;77;21052;-78
2022/02/05 13:15:04;;;;;;;3.02;0.75;;;11.50;99.90;;;;;;1860733;77;21016;-80
2022/02/05 13:24:48;;;;;;;2.87;0.90;;;11.70;99.90;;;;;;1860854;77;21155;-78
2022/02/05 13:25:50;;;;;;;5.30;1.07;;;12.20;99.90;;;;;;1860996;77;21061;-79
2022/02/05 13:29:16;;;;;;;2.00;0.90;;;12.40;99.90;;;;;;1824249;77;21412;-80
2022/02/05 13:36:12;;;;;;;3.22;1.00;;;11.50;99.90;;;;;;1860883;77;21139;-79
2022/02/05 13:38:55;;;;;;;3.30;0.50;;;11.40;99.90;;;;;;1860395;76;21402;-80
2022/02/05 13:41:08;;;;;;;1.90;0.60;;;11.30;99.90;;;;;;1856211;77;21142;-80
2022/02/05 13:43:43;;;;;;;5.62;0.80;;;11.50;99.90;;;;;;1860890;76;21153;-80
2022/02/05 13:46:16;;;;;;;2.45;1.00;;;11.80;99.90;;;;;;1860888;76;21056;-81
2022/02/05 13:48:43;;;;;;;1.95;0.93;;;11.70;99.90;;;;;;1860825;77;21064;-78
2022/02/05 13:51:11;;;;;;;2.37;0.70;;;11.40;99.90;;;;;;1860942;77;21024;-77
2022/02/05 13:54:01;;;;;;;3.98;0.82;;;11.60;99.90;;;;;;1860914;76;21060;-79
2022/02/05 13:56:33;;;;;;;1.77;0.82;;;11.80;99.90;;;;;;1861284;77;21095;-81
2022/02/05 13:59:02;;;;;;;2.55;0.80;;;11.90;99.90;;;;;;1861041;77;21024;-80
2022/02/05 14:01:34;;;;;;;2.90;0.68;;;11.00;99.90;;;;;;1860876;75;21036;-79
2022/02/05 14:04:23;;;;;;;2.02;0.62;;;10.70;99.90;;;;;;1860582;77;21110;-77
2022/02/05 14:06:57;;;;;;;2.85;1.20;;;10.50;99.90;;;;;;1860641;76;21166;-81
2022/02/05 14:09:26;;;;;;;4.50;1.17;;;9.50;99.90;;;;;;1860838;75;21117;-80
2022/02/05 14:11:57;;;;;;;3.22;0.72;;;9.30;99.90;;;;;;1861039;77;21095;-80
2022/02/05 14:14:27;;;;;;;;;;;9.40;99.90;;;;;;1828874;77;21106;-79
2022/02/05 14:16:54;;;;;;;5.83;1.20;;;9.50;99.90;;;;;;1861129;75;20161;-76
2022/02/05 14:19:27;;;;;;;2.35;0.90;;;10.20;99.90;;;;;;1860923;76;21016;-77
2022/02/05 14:21:57;;;;;;;2.02;0.90;;;10.20;99.90;;;;;;1825600;77;21017;-78
2022/02/05 14:24:26;;;;;;;9.38;1.37;;;10.70;99.90;;;;;;1826092;77;21052;-79
2022/02/05 14:27:05;;;;;;;3.65;1.20;;;9.90;99.90;;;;;;1826290;77;21098;-78
2022/02/05 14:29:43;;;;;;;6.70;1.00;;;10.40;99.90;;;;;;1826745;77;21134;-76
2022/02/05 14:32:09;;;;;;;2.98;1.10;;;10.70;99.90;;;;;;1824945;77;21051;-77
2022/02/05 14:34:43;;;;;;;2.90;1.00;;;10.90;99.90;;;;;;1858923;77;21044;-77
2022/02/05 14:42:19;;;;;;;3.37;0.80;;;10.80;99.90;;;;;;1860904;77;21151;-76
2022/02/05 14:44:47;;;;;;;5.40;1.05;;;10.80;99.90;;;;;;1860956;77;21429;-74
2022/02/05 14:47:14;;;;;;;1.60;0.80;;;10.90;99.90;;;;;;1860949;75;21021;-78
2022/02/05 14:49:42;;;;;;;2.92;1.07;;;11.40;99.90;;;;;;1860889;76;21004;-81
2022/02/05 14:52:14;;;;;;;2.37;0.88;;;11.70;99.90;;;;;;1860995;76;21005;-83
2022/02/05 14:54:42;;;;;;;2.27;0.90;;;11.70;99.90;;;;;;1825964;77;21102;-82
2022/02/05 14:57:10;;;;;;;4.42;1.42;;;11.40;99.90;;;;;;1861049;76;21087;-82
2022/02/05 14:59:41;;;;;;;2.65;1.05;;;10.90;99.90;;;;;;1860867;75;21051;-83
2022/02/05 15:02:10;;;;;;;4.12;1.12;;;10.50;99.90;;;;;;1861132;77;21083;-77
2022/02/05 15:04:38;;;;;;;3.45;1.20;;;10.30;99.90;;;;;;1861350;77;21044;-77
2022/02/05 15:07:06;;;;;;;2.90;1.10;;;10.50;99.90;;;;;;1825783;77;21499;-76
2022/02/05 15:09:33;;;;;;;6.40;1.20;;;10.80;99.90;;;;;;1861245;75;21028;-75
2022/02/05 15:12:04;;;;;;;4.58;1.30;;;10.50;99.90;;;;;;1825959;77;20997;-78
2022/02/05 15:14:31;;;;;;;4.90;2.42;;;10.30;99.90;;;;;;1861106;76;21048;-74
2022/02/05 15:16:59;;;;;;;4.47;1.50;;;10.30;99.90;;;;;;1861269;76;21127;-76
2022/02/05 15:19:27;;;;;;;3.52;1.50;;;10.10;99.90;;;;;;1861276;75;21020;-75
2022/02/05 15:21:55;;;;;;;3.42;1.22;;;10.30;99.90;;;;;;1861139;76;21115;-75
2022/02/05 15:24:22;;;;;;;3.35;1.40;;;10.30;99.90;;;;;;1861120;77;21020;-76
2022/02/05 15:26:50;;;;;;;4.97;1.50;;;10.70;99.90;;;;;;1861124;75;21028;-74
2022/02/05 15:29:18;;;;;;;7.03;1.40;;;10.60;99.90;;;;;;1861043;77;21115;-76
2022/02/05 15:31:48;;;;;;;2.30;1.10;;;10.70;99.90;;;;;;1861183;76;21032;-75
2022/02/05 15:34:14;;;;;;;2.35;1.15;;;10.60;99.90;;;;;;1860344;76;21464;-75
2022/02/05 15:36:55;;;;;;;2.22;0.85;;;10.50;99.90;;;;;;1860991;76;21082;-76
2022/02/05 15:39:31;;;;;;;3.60;1.00;;;10.70;99.90;;;;;;1825974;77;21060;-76
2022/02/05 15:44:32;;;;;;;3.95;1.07;;;10.00;99.90;;;;;;1861013;77;21097;-77